Wetona, Pennsylvania
Current Conditions -  °F | °C
As of 10:20 PM on Monday 26 Jan 2015 (Local Time) from KELM Reporting Station
Light Snow Light Snow  
Wind Chill: 19°   Ceiling: 2600
Heat Index: 19°   Visibility: 1.2mi
Dew Point: 15°   Wind: 3mph
Humidity: 85%   Direction: 60°ENE
Pressure: 29.86"   Gusts: NA
Location:  41.8495°N, 76.7925°W
Report Text: KELM 270320Z AUTO 06003KT 1 1/4SM -SN BR OVC026 M07/M09 A2986 RMK AO2 P0001 T10721094
Loading
Personal Weather Stations






























Interactive Weather Map New forecast layout! Learn more

10-Day Weather Forecast

Advertisements
Track Severe Weather on mobile